»·PEaware :: SWA1987 KSAN-KBUR

SWA1987 :: KSAN-KBUR

FLIGHT INFORMATION

Flight Status: Arrived
Operator:
Southwest Airlines
More flights by this operator :: More flights under this callsign
Pilot: Joe C. (22377)
Aircraft: BOEING 737-800
(B738)
More flights by this aircraft type
Origin: KSAN San Diego Intl-Lindbergh
United States
Destination: KBUR Bob Hope-Burbank
United States
More flights between these airports :: More routes between these airports
Route: +CWARD2 SLI V23 LAX LAX316 SILEX
File this flight plan on PilotEdge
Remarks:
Altitude:
(Current/Filed)
180ft
Speed:
(Current/Filed)
370kts
Departed: 10-Feb-19 09:36 AM
Arrived: 10-Feb-19 10:08 AM
Distance/Time
Traveled:
105nm/0:32
Distance/Time
To Go:
Arrived

Flight Plot

Page will automatically refresh every two minutes.

Flight plan parsing failed; only flown route is shown


Map Options




Map Legend


Flown Route
Filed Route
Departure Airport
Arrival Airport
Navaid (VOR, NDB)
Fix

Horizontal Profiles

Position Reports

Time Latitude Longitude Heading Altitude Ground
Speed
10-Feb-19 09:09 32.733215 -117.196882 134 18ft 0kts
10-Feb-19 09:10 32.733215 -117.196882 134 18ft 0kts
10-Feb-19 09:11 32.733215 -117.196882 134 18ft 0kts
10-Feb-19 09:12 32.733215 -117.196882 134 18ft 0kts
10-Feb-19 09:13 32.733215 -117.196882 134 18ft 0kts
10-Feb-19 09:14 32.733215 -117.196882 134 18ft 0kts
10-Feb-19 09:15 32.733215 -117.196882 134 18ft 0kts
10-Feb-19 09:16 32.733215 -117.196882 134 18ft 0kts
10-Feb-19 09:17 32.733215 -117.196882 134 18ft 0kts
10-Feb-19 09:18 32.733215 -117.196882 134 18ft 0kts
10-Feb-19 09:19 32.733215 -117.196882 134 18ft 0kts
10-Feb-19 09:20 32.733215 -117.196882 134 18ft 0kts
10-Feb-19 09:21 32.733215 -117.196882 134 18ft 0kts
10-Feb-19 09:22 32.733210 -117.196876 134 18ft 0kts
10-Feb-19 09:23 32.733158 -117.197283 17 18ft 1kts
10-Feb-19 09:24 32.733129 -117.197295 19 18ft 0kts
10-Feb-19 09:25 32.733129 -117.197295 19 18ft 0kts
10-Feb-19 09:26 32.733129 -117.197295 19 18ft 0kts
10-Feb-19 09:27 32.733129 -117.197295 19 18ft 0kts
10-Feb-19 09:28 32.733129 -117.197295 19 18ft 0kts
10-Feb-19 09:29 32.733353 -117.197200 19 17ft 12kts
10-Feb-19 09:30 32.732357 -117.189004 106 19ft 36kts
10-Feb-19 09:31 32.729798 -117.178455 106 20ft 35kts
10-Feb-19 09:32 32.729498 -117.176768 74 22ft 0kts
10-Feb-19 09:33 32.729498 -117.176768 74 22ft 0kts
10-Feb-19 09:34 32.729526 -117.176654 74 23ft 8kts
10-Feb-19 09:35 32.736621 -117.200639 286 596ft 187kts
10-Feb-19 09:36 32.768923 -117.265572 303 3093ft 260kts
10-Feb-19 09:37 32.811240 -117.337431 306 5610ft 272kts
10-Feb-19 09:38 32.857787 -117.409337 306 8112ft 280kts
10-Feb-19 09:39 32.905243 -117.482896 306 9906ft 298kts
10-Feb-19 09:40 32.965909 -117.577368 306 9897ft 376kts
10-Feb-19 09:41 33.028984 -117.675721 305 9900ft 379kts
10-Feb-19 09:42 33.100450 -117.769080 320 9901ft 385kts
10-Feb-19 09:43 33.181123 -117.847745 325 9897ft 386kts
10-Feb-19 09:44 33.283139 -117.884965 348 9896ft 388kts
10-Feb-19 09:45 33.387513 -117.911917 340 9871ft 388kts
10-Feb-19 09:46 33.464831 -117.981571 316 8615ft 322kts
10-Feb-19 09:47 33.526704 -118.043637 320 7436ft 285kts
10-Feb-19 09:48 33.587532 -118.101438 320 6246ft 279kts
10-Feb-19 09:49 33.643938 -118.155120 321 5926ft 275kts
10-Feb-19 09:50 33.698642 -118.207242 321 5932ft 236kts
10-Feb-19 09:51 33.746782 -118.253201 321 5941ft 236kts
10-Feb-19 09:52 33.796903 -118.301119 321 5943ft 237kts
10-Feb-19 09:53 33.840755 -118.343099 321 5941ft 237kts
10-Feb-19 09:54 33.880820 -118.381501 321 5939ft 237kts
10-Feb-19 09:55 33.923672 -118.422624 321 5937ft 237kts
10-Feb-19 09:57 33.964050 -118.453426 331 5937ft 236kts
10-Feb-19 09:58 34.024247 -118.493459 331 5937ft 236kts
10-Feb-19 09:59 34.066719 -118.521825 331 5937ft 236kts
10-Feb-19 10:00 34.106586 -118.548512 331 5933ft 237kts
10-Feb-19 10:01 34.143771 -118.571477 348 5203ft 244kts
10-Feb-19 10:02 34.178910 -118.584125 351 4574ft 246kts
10-Feb-19 10:03 34.217545 -118.550847 82 3624ft 239kts
10-Feb-19 10:04 34.218148 -118.476304 92 2933ft 224kts
10-Feb-19 10:05 34.235413 -118.418699 54 2594ft 200kts
10-Feb-19 10:06 34.243251 -118.367637 140 2288ft 158kts
10-Feb-19 10:07 34.208163 -118.359300 168 769ft 131kts
10-Feb-19 10:08 34.194872 -118.356523 207 706ft 7kts
10-Feb-19 10:09 34.194777 -118.356566 198 706ft 1kts
10-Feb-19 10:10 34.194367 -118.356391 137 704ft 3kts
10-Feb-19 10:11 34.196334 -118.355643 7 707ft 20kts
10-Feb-19 10:12 34.196933 -118.352476 171 701ft 5kts

Navigation Log

Ident Type
Flight plan parsing failed, navigation log unavailable